Strona główna
METAR-TAF:

Lotnisko :

Poznań, Polska

Port lotniczy Poznań-Ławica

Szerokość geograficzna: 52-25N, Długość geograficzna: 016-50E, wysokość: 86 m

Aktualna obserwacja pogody

Raport powstał 17 minut temu, godzina 14:30 UTC
Wiatr 9 kt od południowo-południowy wschód, zmienny między wschodnio-południowy wschód i południe
Temperatura 9°C
Wilgotność 61%
Ciśnienie 1004 hPa
Widzialność 10 km lub więcej
Brak chmur poniżej 1500 m i brak chmur cumulonimbus

METAR: EPPO 071430Z 16009KT 120V180 CAVOK 09/02 Q1004

czas: 15:47 (14:47 UTC)

Prognoza

Raport powstał 3 godziny i 17 minut temu, godzina 11:30 UTC
Prognoza ważna od 07 godzina 12 UTC do 08 godzina 12 UTC
Wiatr 7 kt od południe
Widzialność 10 km lub więcej
Brak chmur poniżej 1500 m i brak chmur cumulonimbus

TAF: EPPO 071130Z 0712/0812 18007KT CAVOK

METAR-TAF

Obserwacja i prognoza pogody dla ponad 4000 lotnisk (raport METAR i TAF).

Dostępne stacje oznaczono żółtymi i czerwonymi punktami na mapie.

Najedź kursorem aby zobaczyć nazwę stacji.

Kliknij aby zobaczyć obserwacje i prognozy pogody.

Aby zmienić mapę: kliknij na zielony przycisk z czarnym krzyżykiem, aby powiększyć; na zielony przycisk z myślnikiem, aby pomniejszyć; na zielone strzałki, aby przejść do map sąsiednich.


METAR-TAF: